createdAt,value
2023-03-20T00:00:00.962Z,79.24
2023-03-20T00:02:27.619Z,78.98
2023-03-20T00:04:56.696Z,78.99
2023-03-20T00:07:28.320Z,78.65
2023-03-20T00:09:57.913Z,78.58
2023-03-20T00:12:26.605Z,78.94
2023-03-20T00:14:53.422Z,78.81
2023-03-20T00:17:21.154Z,78.96
2023-03-20T00:19:54.831Z,78.83
2023-03-20T00:22:24.180Z,79.04
2023-03-20T00:24:54.420Z,78.91
2023-03-20T00:27:25.859Z,78.76
2023-03-20T00:29:53.808Z,78.74
2023-03-20T00:32:28.905Z,78.68
2023-03-20T00:35:00.518Z,78.65
2023-03-20T00:37:32.055Z,78.69
2023-03-20T00:40:04.354Z,78.70
2023-03-20T00:42:41.362Z,78.74
2023-03-20T00:45:15.109Z,79.02
2023-03-20T00:47:46.611Z,78.86
2023-03-20T00:50:30.487Z,79.16
2023-03-20T00:53:07.032Z,79.08
2023-03-20T00:55:39.401Z,79.08
2023-03-20T00:58:14.173Z,78.95
2023-03-20T01:00:45.599Z,78.90
2023-03-20T01:03:20.737Z,78.86
2023-03-20T01:05:51.144Z,78.79
2023-03-20T01:08:23.770Z,78.76
2023-03-20T01:10:57.177Z,78.54
2023-03-20T01:13:29.311Z,78.90
2023-03-20T01:15:58.535Z,78.65
2023-03-20T01:18:27.011Z,78.84
2023-03-20T01:20:58.990Z,78.70
2023-03-20T01:23:26.734Z,78.89
2023-03-20T01:25:53.990Z,78.67
2023-03-20T01:28:35.905Z,78.41
2023-03-20T01:31:06.493Z,78.75
2023-03-20T01:33:38.449Z,78.91
2023-03-20T01:36:13.037Z,78.71
2023-03-20T01:38:45.445Z,78.66
2023-03-20T01:41:18.383Z,78.47
2023-03-20T01:43:48.385Z,78.53
2023-03-20T01:46:20.083Z,78.69
2023-03-20T01:48:52.225Z,78.58
2023-03-20T01:51:22.327Z,78.72
2023-03-20T01:53:54.909Z,78.73
2023-03-20T01:56:30.511Z,78.64
2023-03-20T01:59:08.714Z,78.55
2023-03-20T02:01:41.682Z,78.57
2023-03-20T02:04:15.722Z,78.91
2023-03-20T02:06:52.004Z,78.48
2023-03-20T02:09:24.866Z,78.70
2023-03-20T02:11:54.660Z,78.73
2023-03-20T02:14:27.038Z,78.47
2023-03-20T02:17:00.778Z,78.53
2023-03-20T02:19:55.762Z,78.71
2023-03-20T02:22:41.620Z,78.44
2023-03-20T02:25:15.910Z,78.42
2023-03-20T02:27:44.723Z,78.71
2023-03-20T02:30:33.580Z,78.82
2023-03-20T02:33:28.955Z,78.81
2023-03-20T02:36:09.261Z,78.91
2023-03-20T02:38:54.398Z,78.57
2023-03-20T02:41:30.711Z,78.60
2023-03-20T02:44:12.284Z,78.48
2023-03-20T02:47:08.316Z,78.69
2023-03-20T02:49:49.806Z,78.46
2023-03-20T02:52:38.467Z,78.62
2023-03-20T02:55:19.004Z,78.35
2023-03-20T02:58:10.860Z,78.63
2023-03-20T03:00:53.598Z,78.28
2023-03-20T03:03:29.115Z,78.28
2023-03-20T03:06:17.906Z,78.31
2023-03-20T03:08:52.720Z,78.21
2023-03-20T03:11:22.073Z,77.97
2023-03-20T03:13:59.004Z,77.92
2023-03-20T03:16:33.224Z,77.88
2023-03-20T03:19:09.889Z,78.00
2023-03-20T03:21:39.320Z,77.74
2023-03-20T03:24:07.332Z,77.94
2023-03-20T03:26:40.418Z,77.98
2023-03-20T03:29:13.542Z,78.59
2023-03-20T03:31:49.394Z,78.53
2023-03-20T03:34:22.732Z,78.47
2023-03-20T03:37:02.370Z,78.30
2023-03-20T03:39:31.244Z,78.38
2023-03-20T03:42:21.662Z,78.35
2023-03-20T03:44:58.629Z,78.38
2023-03-20T03:47:34.989Z,78.04
2023-03-20T03:50:16.688Z,78.02
2023-03-20T03:52:45.716Z,78.08
2023-03-20T03:55:20.032Z,78.17
2023-03-20T03:58:40.995Z,78.65
2023-03-20T04:01:12.021Z,78.10
2023-03-20T04:03:46.240Z,78.35
2023-03-20T04:06:22.368Z,78.18
2023-03-20T04:08:51.913Z,77.97
2023-03-20T04:11:29.280Z,78.33
2023-03-20T04:13:58.499Z,78.00
2023-03-20T04:16:32.523Z,78.08
2023-03-20T04:19:01.710Z,78.06
2023-03-20T04:21:33.537Z,78.05
2023-03-20T04:24:00.529Z,77.97
2023-03-20T04:26:29.494Z,77.65
2023-03-20T04:28:59.560Z,77.71
2023-03-20T04:31:51.531Z,77.94
2023-03-20T04:34:43.470Z,77.76
2023-03-20T04:37:42.178Z,77.78
2023-03-20T04:40:14.150Z,77.84
2023-03-20T04:42:48.002Z,77.67
2023-03-20T04:45:16.918Z,77.87
2023-03-20T04:47:48.403Z,77.96
2023-03-20T04:50:22.828Z,78.20
2023-03-20T04:52:52.499Z,78.11
2023-03-20T04:55:22.728Z,78.28
2023-03-20T04:57:56.480Z,78.39
2023-03-20T05:00:26.597Z,78.47
2023-03-20T05:02:58.463Z,78.20
2023-03-20T05:05:34.654Z,77.88
2023-03-20T05:08:06.611Z,77.41
2023-03-20T05:10:41.434Z,77.82
2023-03-20T05:13:30.339Z,77.71
2023-03-20T05:16:21.708Z,77.67
2023-03-20T05:18:59.984Z,77.66
2023-03-20T05:21:45.325Z,77.32
2023-03-20T05:24:31.489Z,77.37
2023-03-20T05:27:27.436Z,77.14
2023-03-20T05:30:14.550Z,77.25
2023-03-20T05:32:59.821Z,77.25
2023-03-20T05:35:28.781Z,77.44
2023-03-20T05:38:06.832Z,77.22
2023-03-20T05:40:44.981Z,77.47
2023-03-20T05:43:31.905Z,77.38
2023-03-20T05:46:19.120Z,77.20
2023-03-20T05:48:48.114Z,77.20
2023-03-20T05:51:33.770Z,77.07
2023-03-20T05:54:28.426Z,76.79
2023-03-20T05:57:06.321Z,76.81
2023-03-20T06:00:10.460Z,76.79
2023-03-20T06:02:39.682Z,76.90
2023-03-20T06:05:26.382Z,77.10
2023-03-20T06:07:57.675Z,77.08
2023-03-20T06:10:27.713Z,77.18
2023-03-20T06:12:54.610Z,77.57
2023-03-20T06:15:25.332Z,78.74
2023-03-20T06:18:01.694Z,78.07
2023-03-20T06:20:31.696Z,78.05
2023-03-20T06:23:04.114Z,78.15
2023-03-20T06:25:41.733Z,77.95
2023-03-20T06:28:11.140Z,78.13
2023-03-20T06:30:43.525Z,77.80
2023-03-20T06:33:18.381Z,78.24
2023-03-20T06:36:03.600Z,78.25
2023-03-20T06:38:33.815Z,78.30
2023-03-20T06:41:07.057Z,78.33
2023-03-20T06:43:37.414Z,78.12
2023-03-20T06:46:07.424Z,77.99
2023-03-20T06:48:37.442Z,77.90
2023-03-20T06:51:09.934Z,77.99
2023-03-20T06:53:47.537Z,78.00
2023-03-20T06:56:18.037Z,77.84
2023-03-20T06:58:48.116Z,77.89
2023-03-20T07:01:19.951Z,77.91
2023-03-20T07:03:47.003Z,77.93
2023-03-20T07:06:23.044Z,77.97
2023-03-20T07:08:54.947Z,78.08
2023-03-20T07:11:22.514Z,77.86
2023-03-20T07:13:52.968Z,78.12
2023-03-20T07:16:34.749Z,77.56
2023-03-20T07:19:02.968Z,77.76
2023-03-20T07:21:37.176Z,77.82
2023-03-20T07:24:09.283Z,77.78
2023-03-20T07:26:35.956Z,77.86
2023-03-20T07:29:05.051Z,77.41
2023-03-20T07:31:35.000Z,77.79
2023-03-20T07:34:12.918Z,77.31
2023-03-20T07:36:42.880Z,77.55
2023-03-20T07:39:16.895Z,77.68
2023-03-20T07:41:51.528Z,77.37
2023-03-20T07:44:37.663Z,77.59
2023-03-20T07:47:11.798Z,77.18
2023-03-20T07:49:43.352Z,77.56
2023-03-20T07:52:10.075Z,77.59
2023-03-20T07:54:39.251Z,77.43
2023-03-20T07:57:10.920Z,77.14
2023-03-20T07:59:40.197Z,77.22
2023-03-20T08:02:06.922Z,77.17
2023-03-20T08:04:33.752Z,76.70
2023-03-20T08:07:00.755Z,76.84
2023-03-20T08:09:30.283Z,76.94
2023-03-20T08:11:56.923Z,76.74
2023-03-20T08:14:26.232Z,76.78
2023-03-20T08:17:12.290Z,76.76
2023-03-20T08:19:42.458Z,76.86
2023-03-20T08:22:11.952Z,76.73
2023-03-20T08:24:41.331Z,76.72
2023-03-20T08:27:07.983Z,77.39
2023-03-20T08:29:39.470Z,77.07
2023-03-20T08:32:11.084Z,76.65
2023-03-20T08:34:40.272Z,75.65
2023-03-20T08:37:10.111Z,75.57
2023-03-20T08:39:41.447Z,75.33
2023-03-20T08:42:16.087Z,75.30
2023-03-20T08:44:45.736Z,75.22
2023-03-20T08:47:15.043Z,75.22
2023-03-20T08:49:46.449Z,75.54
2023-03-20T08:52:13.097Z,74.74
2023-03-20T08:54:42.217Z,75.27
2023-03-20T08:57:15.929Z,75.54
2023-03-20T08:59:47.305Z,74.96
2023-03-20T09:02:14.177Z,73.65
2023-03-20T09:04:48.102Z,73.94
2023-03-20T09:07:19.480Z,73.62
2023-03-20T09:09:48.614Z,72.61
2023-03-20T09:12:17.408Z,73.48
2023-03-20T09:14:47.371Z,73.21
2023-03-20T09:17:18.821Z,73.72
2023-03-20T09:19:52.769Z,73.11
2023-03-20T09:22:21.834Z,73.31
2023-03-20T09:24:48.495Z,73.15
2023-03-20T09:27:15.341Z,72.84
2023-03-20T09:29:46.633Z,73.00
2023-03-20T09:32:18.143Z,72.95
2023-03-20T09:34:47.492Z,71.62
2023-03-20T09:37:14.142Z,71.46
2023-03-20T09:39:43.149Z,71.53
2023-03-20T09:42:34.465Z,71.84
2023-03-20T09:45:30.913Z,71.69
2023-03-20T09:48:07.488Z,70.95
2023-03-20T09:50:39.333Z,71.30
2023-03-20T09:53:20.584Z,71.15
2023-03-20T09:55:48.650Z,71.67
2023-03-20T09:58:23.361Z,71.78
2023-03-20T10:00:50.016Z,71.56
2023-03-20T10:03:32.674Z,71.14
2023-03-20T10:06:07.448Z,69.89
2023-03-20T10:08:43.065Z,70.68
2023-03-20T10:11:19.034Z,70.37
2023-03-20T10:14:02.050Z,70.67
2023-03-20T10:16:41.069Z,70.88
2023-03-20T10:19:07.862Z,70.87
2023-03-20T10:21:44.719Z,70.88
2023-03-20T10:24:19.783Z,71.04
2023-03-20T10:26:52.393Z,70.60
2023-03-20T10:29:36.756Z,70.94
2023-03-20T10:32:12.040Z,71.05
2023-03-20T10:34:55.556Z,69.72
2023-03-20T10:37:39.887Z,68.62
2023-03-20T10:40:29.755Z,68.55
2023-03-20T10:43:02.961Z,69.21
2023-03-20T10:45:41.732Z,68.40
2023-03-20T10:48:44.415Z,67.73
2023-03-20T10:51:18.082Z,68.41
2023-03-20T10:54:02.280Z,68.03
2023-03-20T10:56:40.892Z,67.62
2023-03-20T10:59:15.891Z,67.41
2023-03-20T11:01:42.482Z,67.38
2023-03-20T11:04:11.568Z,67.48
2023-03-20T11:06:47.312Z,67.05
2023-03-20T11:09:22.406Z,67.48
2023-03-20T11:11:56.978Z,67.44
2023-03-20T11:14:27.175Z,68.40
2023-03-20T11:16:55.875Z,67.10
2023-03-20T11:19:27.343Z,66.86
2023-03-20T11:21:56.652Z,66.72
2023-03-20T11:24:36.104Z,64.11
2023-03-20T11:27:10.514Z,64.88
2023-03-20T11:29:37.835Z,64.34
2023-03-20T11:32:09.932Z,63.53
2023-03-20T11:34:43.329Z,63.20
2023-03-20T11:37:26.047Z,63.24
2023-03-20T11:40:24.068Z,62.55
2023-03-20T11:42:58.091Z,62.18
2023-03-20T11:45:35.900Z,62.26
2023-03-20T11:48:08.989Z,61.99
2023-03-20T11:50:45.877Z,61.06
2023-03-20T11:53:34.850Z,61.28
2023-03-20T11:56:18.033Z,61.20
2023-03-20T11:59:18.250Z,60.06
2023-03-20T12:01:47.292Z,60.89
2023-03-20T12:04:21.402Z,61.61
2023-03-20T12:07:13.565Z,61.43
2023-03-20T12:09:45.632Z,61.14
2023-03-20T12:12:49.281Z,59.65
2023-03-20T12:15:23.304Z,60.86
2023-03-20T12:18:08.298Z,60.42
2023-03-20T12:20:57.665Z,60.21
2023-03-20T12:24:01.352Z,59.49
2023-03-20T12:26:38.461Z,59.77
2023-03-20T12:29:32.102Z,59.94
2023-03-20T12:32:05.019Z,59.99
2023-03-20T12:34:44.961Z,60.27
2023-03-20T12:37:13.357Z,59.80
2023-03-20T12:40:05.606Z,59.34
2023-03-20T12:42:40.926Z,59.89
2023-03-20T12:45:23.917Z,59.16
2023-03-20T12:48:04.744Z,59.69
2023-03-20T12:50:36.227Z,60.21
2023-03-20T12:53:28.129Z,59.58
2023-03-20T12:56:23.907Z,60.06
2023-03-20T12:58:56.736Z,60.27
2023-03-20T13:01:53.203Z,60.44
2023-03-20T13:04:43.733Z,60.37
2023-03-20T13:07:31.393Z,60.02
2023-03-20T13:10:37.161Z,58.22
2023-03-20T13:13:15.698Z,59.88
2023-03-20T13:15:58.949Z,58.16
2023-03-20T13:18:59.395Z,59.41
2023-03-20T13:21:49.207Z,59.32
2023-03-20T13:24:41.128Z,59.36
2023-03-20T13:27:49.388Z,58.88
2023-03-20T13:30:34.038Z,59.65
2023-03-20T13:33:12.965Z,59.43
2023-03-20T13:36:06.111Z,59.40
2023-03-20T13:38:40.491Z,59.14
2023-03-20T13:41:13.403Z,59.57
2023-03-20T13:43:58.821Z,58.05
2023-03-20T13:46:36.232Z,59.08
2023-03-20T13:49:17.403Z,58.94
2023-03-20T13:52:01.053Z,59.32
2023-03-20T13:54:59.262Z,59.34
2023-03-20T13:57:47.767Z,58.73
2023-03-20T14:00:39.153Z,58.82
2023-03-20T14:03:33.043Z,59.05
2023-03-20T14:06:16.969Z,59.60
2023-03-20T14:08:57.801Z,58.92
2023-03-20T14:11:32.521Z,59.66
2023-03-20T14:14:04.911Z,58.82
2023-03-20T14:16:38.624Z,58.85
2023-03-20T14:19:20.949Z,58.24
2023-03-20T14:21:54.614Z,57.07
2023-03-20T14:24:27.985Z,57.00
2023-03-20T14:27:05.645Z,56.57
2023-03-20T14:29:37.243Z,56.75
2023-03-20T14:32:13.182Z,54.63
2023-03-20T14:34:48.849Z,54.10
2023-03-20T14:37:31.590Z,55.41
2023-03-20T14:40:13.264Z,55.11
2023-03-20T14:42:43.560Z,54.58
2023-03-20T14:45:16.021Z,53.83
2023-03-20T14:47:42.586Z,55.93
2023-03-20T14:50:33.928Z,56.46
2023-03-20T14:53:21.186Z,55.89
2023-03-20T14:55:56.926Z,56.65
2023-03-20T14:58:41.591Z,56.09
2023-03-20T15:01:18.427Z,56.61
2023-03-20T15:04:17.395Z,56.07
2023-03-20T15:06:53.769Z,56.25
2023-03-20T15:09:25.323Z,56.64
2023-03-20T15:11:59.772Z,55.92
2023-03-20T15:14:31.618Z,56.25
2023-03-20T15:17:07.352Z,56.30
2023-03-20T15:19:41.888Z,56.08
2023-03-20T15:22:18.992Z,55.59
2023-03-20T15:24:56.957Z,55.67
2023-03-20T15:27:30.460Z,56.33
2023-03-20T15:30:02.018Z,56.62
2023-03-20T15:32:31.542Z,56.43
2023-03-20T15:35:02.941Z,56.44
2023-03-20T15:37:29.780Z,56.64
2023-03-20T15:40:01.052Z,56.63
2023-03-20T15:42:27.815Z,56.58
2023-03-20T15:44:57.896Z,56.17
2023-03-20T15:47:27.403Z,56.31
2023-03-20T15:50:02.781Z,56.27
2023-03-20T15:52:53.219Z,55.63
2023-03-20T15:55:28.153Z,55.90
2023-03-20T15:58:05.433Z,55.84
2023-03-20T16:00:34.283Z,55.99
2023-03-20T16:03:04.048Z,55.93
2023-03-20T16:05:37.465Z,55.92
2023-03-20T16:08:24.787Z,55.64
2023-03-20T16:11:10.476Z,55.99
2023-03-20T16:13:42.520Z,56.17
2023-03-20T16:16:19.266Z,55.82
2023-03-20T16:18:51.162Z,56.09
2023-03-20T16:21:33.407Z,55.56
2023-03-20T16:24:03.001Z,56.21
2023-03-20T16:26:29.701Z,56.19
2023-03-20T16:29:03.311Z,56.41
2023-03-20T16:31:34.287Z,56.27
2023-03-20T16:34:05.608Z,56.03
2023-03-20T16:36:38.172Z,56.46
2023-03-20T16:39:07.834Z,56.83
2023-03-20T16:41:39.419Z,56.78
2023-03-20T16:44:29.811Z,56.58
2023-03-20T16:47:02.326Z,56.56
2023-03-20T16:49:34.930Z,56.82
2023-03-20T16:52:16.989Z,56.69
2023-03-20T16:54:47.290Z,57.37
2023-03-20T16:57:21.790Z,56.95
2023-03-20T16:59:57.526Z,57.00
2023-03-20T17:02:35.153Z,57.06
2023-03-20T17:05:12.298Z,57.10
2023-03-20T17:07:39.168Z,57.17
2023-03-20T17:10:20.161Z,57.05
2023-03-20T17:12:51.411Z,57.34
2023-03-20T17:15:24.938Z,57.32
2023-03-20T17:17:51.609Z,57.48
2023-03-20T17:20:28.279Z,57.37
2023-03-20T17:22:57.994Z,57.72
2023-03-20T17:25:27.662Z,57.83
2023-03-20T17:27:56.789Z,57.81
2023-03-20T17:30:25.645Z,57.85
2023-03-20T17:32:54.777Z,58.00
2023-03-20T17:35:26.405Z,58.02
2023-03-20T17:38:00.048Z,58.01
2023-03-20T17:40:33.050Z,58.17
2023-03-20T17:43:02.279Z,58.42
2023-03-20T17:45:36.419Z,58.24
2023-03-20T17:48:08.361Z,58.72
2023-03-20T17:50:35.317Z,58.99
2023-03-20T17:53:16.531Z,59.08
2023-03-20T17:55:45.714Z,59.09
2023-03-20T17:58:17.226Z,59.11
2023-03-20T18:00:46.362Z,59.19
2023-03-20T18:03:16.859Z,59.54
2023-03-20T18:05:48.094Z,59.60
2023-03-20T18:08:26.096Z,59.65
2023-03-20T18:10:54.743Z,59.99
2023-03-20T18:13:24.501Z,59.97
2023-03-20T18:15:59.030Z,59.93
2023-03-20T18:18:28.264Z,60.17
2023-03-20T18:20:57.594Z,60.05
2023-03-20T18:23:28.850Z,59.98
2023-03-20T18:26:01.039Z,60.20
2023-03-20T18:28:29.996Z,60.35
2023-03-20T18:30:56.711Z,60.26
2023-03-20T18:33:27.749Z,60.67
2023-03-20T18:35:59.459Z,60.50
2023-03-20T18:38:26.310Z,60.66
2023-03-20T18:40:59.596Z,60.74
2023-03-20T18:43:31.074Z,60.74
2023-03-20T18:46:00.289Z,61.11
2023-03-20T18:48:30.726Z,61.25
2023-03-20T18:51:02.804Z,61.14
2023-03-20T18:53:29.950Z,61.11
2023-03-20T18:55:57.258Z,61.23
2023-03-20T18:58:26.523Z,61.74
2023-03-20T19:00:55.146Z,61.68
2023-03-20T19:03:24.692Z,61.75
2023-03-20T19:05:56.339Z,61.78
2023-03-20T19:08:25.847Z,61.86
2023-03-20T19:10:57.569Z,61.87
2023-03-20T19:13:24.919Z,62.10
2023-03-20T19:15:51.699Z,62.50
2023-03-20T19:18:23.623Z,62.44
2023-03-20T19:20:57.707Z,62.35
2023-03-20T19:23:29.053Z,62.48
2023-03-20T19:25:58.255Z,62.53
2023-03-20T19:28:40.553Z,62.23
2023-03-20T19:31:09.518Z,62.56
2023-03-20T19:33:39.317Z,62.62
2023-03-20T19:36:28.211Z,62.73
2023-03-20T19:39:01.487Z,62.84
2023-03-20T19:41:29.085Z,63.03
2023-03-20T19:44:01.453Z,63.00
2023-03-20T19:46:44.035Z,63.22
2023-03-20T19:49:21.046Z,63.18
2023-03-20T19:51:50.650Z,63.34
2023-03-20T19:54:22.049Z,63.33
2023-03-20T19:56:58.532Z,63.37
2023-03-20T19:59:29.030Z,63.44
2023-03-20T20:01:55.858Z,63.58
2023-03-20T20:04:22.558Z,63.77
2023-03-20T20:06:55.468Z,63.75
2023-03-20T20:09:26.763Z,63.61
2023-03-20T20:11:57.857Z,63.80
2023-03-20T20:14:29.005Z,63.60
2023-03-20T20:17:00.917Z,63.67
2023-03-20T20:19:30.459Z,63.57
2023-03-20T20:22:20.084Z,63.58
2023-03-20T20:24:51.245Z,63.53
2023-03-20T20:27:20.194Z,63.52
2023-03-20T20:29:51.931Z,63.49
2023-03-20T20:32:21.360Z,63.59
2023-03-20T20:40:29.502Z,63.51
2023-03-20T20:43:01.277Z,63.64
2023-03-20T20:45:32.095Z,63.50
2023-03-20T20:48:00.187Z,63.56
2023-03-20T20:50:28.979Z,63.27
2023-03-20T20:52:59.440Z,63.28
2023-03-20T20:55:26.603Z,62.97
2023-03-20T20:57:55.776Z,62.92
2023-03-20T21:00:41.309Z,62.93
2023-03-20T21:03:14.936Z,62.92
2023-03-20T21:05:43.643Z,63.01
2023-03-20T21:08:18.589Z,63.04
2023-03-20T21:10:48.642Z,63.20
2023-03-20T21:13:22.206Z,63.39
2023-03-20T21:16:00.183Z,63.35
2023-03-20T21:18:26.977Z,63.40
2023-03-20T21:21:06.300Z,63.47
2023-03-20T21:23:35.505Z,63.68
2023-03-20T21:26:02.338Z,63.74
2023-03-20T21:28:29.274Z,63.94
2023-03-20T21:31:22.801Z,63.92
2023-03-20T21:33:45.493Z,63.88
2023-03-20T21:36:12.321Z,63.98
2023-03-20T21:41:30.528Z,63.95
2023-03-20T21:43:57.213Z,63.93
2023-03-20T21:50:07.709Z,64.20
2023-03-20T21:56:02.544Z,64.15
2023-03-20T22:01:21.755Z,64.17
2023-03-20T22:03:47.748Z,64.16
2023-03-20T22:07:09.561Z,64.32
2023-03-20T22:12:35.720Z,64.24
2023-03-20T22:15:29.203Z,64.07
2023-03-20T22:17:59.518Z,64.34
2023-03-20T22:27:12.946Z,64.22
2023-03-20T22:32:27.949Z,64.41
2023-03-20T22:37:58.408Z,64.63
2023-03-20T22:43:26.454Z,64.89
2023-03-20T22:45:43.018Z,64.83
2023-03-20T22:48:16.567Z,65.11
2023-03-20T22:50:50.133Z,65.23
2023-03-20T22:53:21.651Z,65.16
2023-03-20T22:55:53.795Z,65.56
2023-03-20T22:58:20.491Z,65.66
2023-03-20T23:00:52.083Z,65.59
2023-03-20T23:03:37.616Z,65.64
2023-03-20T23:06:20.583Z,65.99
2023-03-20T23:08:55.395Z,66.06
2023-03-20T23:11:27.096Z,66.08
2023-03-20T23:13:57.222Z,66.31
2023-03-20T23:16:26.267Z,66.41
2023-03-20T23:18:55.543Z,66.56
2023-03-20T23:21:26.652Z,66.52
2023-03-20T23:23:53.497Z,66.57
2023-03-20T23:26:24.902Z,66.69
2023-03-20T23:28:57.597Z,66.91
2023-03-20T23:31:29.133Z,66.73
2023-03-20T23:34:02.518Z,66.69
2023-03-20T23:36:37.408Z,66.84
2023-03-20T23:39:09.228Z,66.77
2023-03-20T23:42:04.643Z,66.76
2023-03-20T23:44:27.257Z,66.60
2023-03-20T23:46:56.206Z,66.76
2023-03-20T23:49:23.114Z,66.57
2023-03-20T23:51:54.160Z,66.65
